Pagrindinis puslapis
METAR-TAF:

METAR-TAF

Oro uostai :

Elista, Rusija

platuma: 46-22N, ilguma: 044-20E, Aukštis: 150 m

Dabartinis oras

Ataskaita buvo paskelbta 11 minutes, ne 10:00 UTC
Vėjas 12 kt iš Pietų/Pietryčių
Temperatūra 6°C
Drėgmė 52%
Slėgis 1029 hPa
Matomumas 10 km arba daugiau
nėra debesų žemiau 1500 m ir nėra kamuolinių lietaus debesų

METAR: URWI 271000Z 15006MPS CAVOK 06/M03 Q1029 R09/010065 NOSIG

Laikas: 14:11 (10:11 UTC)

Prognozė

Ataskaita buvo paskelbta 2 valandos ir 15 minutes, ne 07:56 UTC
Prognozė galioja nuo 27 metu 09 UTC su 27 metu 18 UTC
Vėjas 12 kt iš Pietryčių su gūsio iki 23 kt
Matomumas 10 km arba daugiau
Išsisklaidę debesys ne aukštis 2000 ft
Laikinai
nuo 27 metu 09 UTC su 27 metu 15 UTC
Vėjas 16 kt iš Pietų su gūsio iki 25 kt

TAF: URWI 270756Z 2709/2718 14006G12MPS 9999 SCT020 TEMPO 2709/2715 17008G13MPS

Orai ataskaitas ir orų prognozės (METAR, TAF).

turimą stotys yra geltonos ir raudonos taškus žemėlapyje.

Perkelti pele per norėdami pamatyti stoties vardą.

Tada spustelėkite, norėdami matyti oro stebėjimo ir prognozės.

Norėdami pakeisti žemėlapį: spustelėkite ant žalios mygtukų su juodo kryžiaus žemyn,; žalią mygtuką su brūkšneliu, jei norite nutolinti; arba žalių rodyklių gretimoms žemėlapius.


METAR-TAF: